sensor_id;sensor_type;location;lat;lon;timestamp;P1;durP1;ratioP1;P2;durP2;ratioP2
13421;SDS011;6782;55.904;13.396;2023-06-24T00:01:09;9.57;;;8.70;;
13421;SDS011;6782;55.904;13.396;2023-06-24T00:03:58;11.77;;;9.27;;
13421;SDS011;6782;55.904;13.396;2023-06-24T00:06:45;11.70;;;8.55;;
13421;SDS011;6782;55.904;13.396;2023-06-24T00:09:33;11.07;;;8.98;;
13421;SDS011;6782;55.904;13.396;2023-06-24T00:12:20;10.13;;;9.15;;
13421;SDS011;6782;55.904;13.396;2023-06-24T00:15:07;10.40;;;9.10;;
13421;SDS011;6782;55.904;13.396;2023-06-24T00:17:57;11.18;;;10.02;;
13421;SDS011;6782;55.904;13.396;2023-06-24T00:20:51;11.20;;;10.02;;
13421;SDS011;6782;55.904;13.396;2023-06-24T00:23:38;11.02;;;10.00;;
13421;SDS011;6782;55.904;13.396;2023-06-24T00:26:26;11.68;;;10.35;;
13421;SDS011;6782;55.904;13.396;2023-06-24T00:29:13;12.13;;;9.48;;
13421;SDS011;6782;55.904;13.396;2023-06-24T00:32:01;11.95;;;10.10;;
13421;SDS011;6782;55.904;13.396;2023-06-24T00:34:50;10.90;;;9.63;;
13421;SDS011;6782;55.904;13.396;2023-06-24T00:37:37;12.75;;;9.27;;
13421;SDS011;6782;55.904;13.396;2023-06-24T00:40:25;11.63;;;10.20;;
13421;SDS011;6782;55.904;13.396;2023-06-24T00:43:12;11.02;;;9.90;;
13421;SDS011;6782;55.904;13.396;2023-06-24T00:46:00;10.48;;;9.05;;
13421;SDS011;6782;55.904;13.396;2023-06-24T00:48:47;10.82;;;9.55;;
13421;SDS011;6782;55.904;13.396;2023-06-24T00:51:37;11.23;;;9.70;;
13421;SDS011;6782;55.904;13.396;2023-06-24T00:54:25;11.27;;;9.63;;
13421;SDS011;6782;55.904;13.396;2023-06-24T00:57:16;11.32;;;10.07;;
13421;SDS011;6782;55.904;13.396;2023-06-24T01:00:10;10.85;;;9.85;;
13421;SDS011;6782;55.904;13.396;2023-06-24T01:03:00;10.02;;;8.98;;
13421;SDS011;6782;55.904;13.396;2023-06-24T01:05:47;9.73;;;8.82;;
13421;SDS011;6782;55.904;13.396;2023-06-24T01:08:37;10.02;;;9.02;;
13421;SDS011;6782;55.904;13.396;2023-06-24T01:11:24;10.35;;;8.88;;
13421;SDS011;6782;55.904;13.396;2023-06-24T01:14:11;10.65;;;8.75;;
13421;SDS011;6782;55.904;13.396;2023-06-24T01:16:59;10.48;;;9.02;;
13421;SDS011;6782;55.904;13.396;2023-06-24T01:19:59;10.77;;;8.77;;
13421;SDS011;6782;55.904;13.396;2023-06-24T01:23:04;10.98;;;9.95;;
13421;SDS011;6782;55.904;13.396;2023-06-24T01:26:33;9.75;;;8.80;;
13421;SDS011;6782;55.904;13.396;2023-06-24T01:29:47;10.00;;;9.10;;
13421;SDS011;6782;55.904;13.396;2023-06-24T01:32:52;10.48;;;9.32;;
13421;SDS011;6782;55.904;13.396;2023-06-24T01:35:42;9.13;;;8.32;;
13421;SDS011;6782;55.904;13.396;2023-06-24T01:38:31;10.20;;;9.13;;
13421;SDS011;6782;55.904;13.396;2023-06-24T01:41:24;10.73;;;9.40;;
13421;SDS011;6782;55.904;13.396;2023-06-24T01:44:16;9.45;;;8.55;;
13421;SDS011;6782;55.904;13.396;2023-06-24T01:47:05;10.00;;;8.80;;
13421;SDS011;6782;55.904;13.396;2023-06-24T01:49:56;9.88;;;8.88;;
13421;SDS011;6782;55.904;13.396;2023-06-24T01:52:46;12.68;;;8.80;;
13421;SDS011;6782;55.904;13.396;2023-06-24T01:55:37;10.27;;;9.27;;
13421;SDS011;6782;55.904;13.396;2023-06-24T01:58:28;9.43;;;8.63;;
13421;SDS011;6782;55.904;13.396;2023-06-24T02:01:20;10.93;;;9.82;;
13421;SDS011;6782;55.904;13.396;2023-06-24T02:04:09;11.32;;;10.30;;
13421;SDS011;6782;55.904;13.396;2023-06-24T02:07:01;10.57;;;9.57;;
13421;SDS011;6782;55.904;13.396;2023-06-24T02:09:49;12.00;;;10.00;;
13421;SDS011;6782;55.904;13.396;2023-06-24T02:12:38;11.05;;;9.95;;
13421;SDS011;6782;55.904;13.396;2023-06-24T02:15:26;11.75;;;10.63;;
13421;SDS011;6782;55.904;13.396;2023-06-24T02:18:15;10.07;;;9.05;;
13421;SDS011;6782;55.904;13.396;2023-06-24T02:21:05;12.32;;;9.85;;
13421;SDS011;6782;55.904;13.396;2023-06-24T02:23:54;11.75;;;10.38;;
13421;SDS011;6782;55.904;13.396;2023-06-24T02:26:42;12.30;;;10.57;;
13421;SDS011;6782;55.904;13.396;2023-06-24T02:29:30;11.27;;;10.18;;
13421;SDS011;6782;55.904;13.396;2023-06-24T02:32:19;10.82;;;9.73;;
13421;SDS011;6782;55.904;13.396;2023-06-24T02:35:07;13.98;;;10.63;;
13421;SDS011;6782;55.904;13.396;2023-06-24T02:37:54;12.07;;;10.88;;
13421;SDS011;6782;55.904;13.396;2023-06-24T02:40:45;12.13;;;10.90;;
13421;SDS011;6782;55.904;13.396;2023-06-24T02:43:32;11.65;;;10.20;;
13421;SDS011;6782;55.904;13.396;2023-06-24T02:46:21;11.93;;;10.57;;
13421;SDS011;6782;55.904;13.396;2023-06-24T02:49:09;13.30;;;11.30;;
13421;SDS011;6782;55.904;13.396;2023-06-24T02:51:58;11.95;;;10.25;;
13421;SDS011;6782;55.904;13.396;2023-06-24T02:54:46;11.48;;;10.38;;
13421;SDS011;6782;55.904;13.396;2023-06-24T02:57:35;12.02;;;10.82;;
13421;SDS011;6782;55.904;13.396;2023-06-24T03:00:24;11.85;;;10.70;;
13421;SDS011;6782;55.904;13.396;2023-06-24T03:03:12;11.75;;;10.25;;
13421;SDS011;6782;55.904;13.396;2023-06-24T03:06:00;11.90;;;10.70;;
13421;SDS011;6782;55.904;13.396;2023-06-24T03:08:49;13.15;;;11.85;;
13421;SDS011;6782;55.904;13.396;2023-06-24T03:11:45;13.75;;;11.93;;
13421;SDS011;6782;55.904;13.396;2023-06-24T03:14:34;14.18;;;12.68;;
13421;SDS011;6782;55.904;13.396;2023-06-24T03:17:21;14.00;;;11.65;;
13421;SDS011;6782;55.904;13.396;2023-06-24T03:20:10;14.55;;;12.95;;
13421;SDS011;6782;55.904;13.396;2023-06-24T03:22:57;13.20;;;11.40;;
13421;SDS011;6782;55.904;13.396;2023-06-24T03:25:44;13.60;;;11.27;;
13421;SDS011;6782;55.904;13.396;2023-06-24T03:28:31;12.30;;;10.63;;
13421;SDS011;6782;55.904;13.396;2023-06-24T03:31:20;11.27;;;10.18;;
13421;SDS011;6782;55.904;13.396;2023-06-24T03:34:08;9.95;;;9.05;;
13421;SDS011;6782;55.904;13.396;2023-06-24T03:36:55;10.02;;;8.95;;
13421;SDS011;6782;55.904;13.396;2023-06-24T03:39:43;10.77;;;9.02;;
13421;SDS011;6782;55.904;13.396;2023-06-24T03:42:30;9.57;;;8.65;;
13421;SDS011;6782;55.904;13.396;2023-06-24T03:45:17;10.07;;;8.90;;
13421;SDS011;6782;55.904;13.396;2023-06-24T03:48:06;9.88;;;8.75;;
13421;SDS011;6782;55.904;13.396;2023-06-24T03:50:53;11.02;;;8.95;;
13421;SDS011;6782;55.904;13.396;2023-06-24T03:53:40;10.13;;;8.60;;
13421;SDS011;6782;55.904;13.396;2023-06-24T03:56:28;10.70;;;7.82;;
13421;SDS011;6782;55.904;13.396;2023-06-24T03:59:15;10.43;;;9.43;;
13421;SDS011;6782;55.904;13.396;2023-06-24T04:02:02;11.77;;;8.27;;
13421;SDS011;6782;55.904;13.396;2023-06-24T04:04:54;10.25;;;9.25;;
13421;SDS011;6782;55.904;13.396;2023-06-24T04:07:42;9.95;;;8.35;;
13421;SDS011;6782;55.904;13.396;2023-06-24T04:10:32;10.15;;;9.02;;
13421;SDS011;6782;55.904;13.396;2023-06-24T04:13:19;10.65;;;8.43;;
13421;SDS011;6782;55.904;13.396;2023-06-24T04:16:06;10.68;;;9.32;;
13421;SDS011;6782;55.904;13.396;2023-06-24T04:18:53;11.65;;;8.95;;
13421;SDS011;6782;55.904;13.396;2023-06-24T04:21:42;9.70;;;8.70;;
13421;SDS011;6782;55.904;13.396;2023-06-24T04:24:29;12.55;;;8.40;;
13421;SDS011;6782;55.904;13.396;2023-06-24T04:27:17;12.70;;;9.27;;
13421;SDS011;6782;55.904;13.396;2023-06-24T04:30:04;12.07;;;10.10;;
13421;SDS011;6782;55.904;13.396;2023-06-24T04:32:52;10.85;;;9.75;;
13421;SDS011;6782;55.904;13.396;2023-06-24T04:35:40;12.43;;;10.05;;
13421;SDS011;6782;55.904;13.396;2023-06-24T04:38:29;12.82;;;10.75;;
13421;SDS011;6782;55.904;13.396;2023-06-24T04:41:16;12.45;;;10.75;;
13421;SDS011;6782;55.904;13.396;2023-06-24T04:44:05;14.73;;;10.60;;
13421;SDS011;6782;55.904;13.396;2023-06-24T04:46:52;14.70;;;10.75;;
13421;SDS011;6782;55.904;13.396;2023-06-24T04:49:39;13.35;;;10.13;;
13421;SDS011;6782;55.904;13.396;2023-06-24T04:52:26;11.55;;;10.40;;
13421;SDS011;6782;55.904;13.396;2023-06-24T04:55:15;14.38;;;10.27;;
13421;SDS011;6782;55.904;13.396;2023-06-24T04:58:02;11.13;;;10.02;;
13421;SDS011;6782;55.904;13.396;2023-06-24T05:00:49;12.00;;;10.80;;
13421;SDS011;6782;55.904;13.396;2023-06-24T05:03:36;13.00;;;10.10;;
13421;SDS011;6782;55.904;13.396;2023-06-24T05:06:23;12.23;;;10.43;;
13421;SDS011;6782;55.904;13.396;2023-06-24T05:09:11;11.68;;;10.52;;
13421;SDS011;6782;55.904;13.396;2023-06-24T05:12:01;13.57;;;10.57;;
13421;SDS011;6782;55.904;13.396;2023-06-24T05:14:49;11.40;;;10.00;;
13421;SDS011;6782;55.904;13.396;2023-06-24T05:17:38;13.15;;;10.80;;
13421;SDS011;6782;55.904;13.396;2023-06-24T05:20:26;11.80;;;10.70;;
13421;SDS011;6782;55.904;13.396;2023-06-24T05:23:13;12.43;;;9.98;;
13421;SDS011;6782;55.904;13.396;2023-06-24T05:26:01;11.95;;;10.25;;
13421;SDS011;6782;55.904;13.396;2023-06-24T05:28:50;11.38;;;10.27;;
13421;SDS011;6782;55.904;13.396;2023-06-24T05:31:37;10.88;;;9.77;;
13421;SDS011;6782;55.904;13.396;2023-06-24T05:34:24;12.05;;;10.52;;
13421;SDS011;6782;55.904;13.396;2023-06-24T05:37:11;12.90;;;10.35;;
13421;SDS011;6782;55.904;13.396;2023-06-24T05:39:59;11.57;;;10.20;;
13421;SDS011;6782;55.904;13.396;2023-06-24T05:42:47;13.38;;;10.18;;
13421;SDS011;6782;55.904;13.396;2023-06-24T05:45:36;13.25;;;10.05;;
13421;SDS011;6782;55.904;13.396;2023-06-24T05:48:23;13.77;;;9.90;;
13421;SDS011;6782;55.904;13.396;2023-06-24T05:51:10;10.25;;;9.25;;
13421;SDS011;6782;55.904;13.396;2023-06-24T05:53:57;11.07;;;9.13;;
13421;SDS011;6782;55.904;13.396;2023-06-24T05:56:45;10.50;;;9.40;;
13421;SDS011;6782;55.904;13.396;2023-06-24T05:59:32;9.77;;;8.77;;
13421;SDS011;6782;55.904;13.396;2023-06-24T06:02:20;13.15;;;9.65;;
13421;SDS011;6782;55.904;13.396;2023-06-24T06:05:08;9.82;;;8.38;;
13421;SDS011;6782;55.904;13.396;2023-06-24T06:07:55;11.15;;;9.43;;
13421;SDS011;6782;55.904;13.396;2023-06-24T06:10:43;9.88;;;8.88;;
13421;SDS011;6782;55.904;13.396;2023-06-24T06:13:30;12.52;;;9.18;;
13421;SDS011;6782;55.904;13.396;2023-06-24T06:16:17;9.00;;;8.13;;
13421;SDS011;6782;55.904;13.396;2023-06-24T06:19:06;8.48;;;7.57;;
13421;SDS011;6782;55.904;13.396;2023-06-24T06:21:53;8.68;;;7.72;;
13421;SDS011;6782;55.904;13.396;2023-06-24T06:24:40;8.38;;;7.35;;
13421;SDS011;6782;55.904;13.396;2023-06-24T06:27:27;9.02;;;7.35;;
13421;SDS011;6782;55.904;13.396;2023-06-24T06:30:15;9.88;;;7.20;;
13421;SDS011;6782;55.904;13.396;2023-06-24T06:33:03;8.07;;;7.07;;
13421;SDS011;6782;55.904;13.396;2023-06-24T06:35:52;8.43;;;6.70;;
13421;SDS011;6782;55.904;13.396;2023-06-24T06:38:40;7.43;;;6.72;;
13421;SDS011;6782;55.904;13.396;2023-06-24T06:41:27;7.78;;;7.00;;
13421;SDS011;6782;55.904;13.396;2023-06-24T06:44:14;7.90;;;6.97;;
13421;SDS011;6782;55.904;13.396;2023-06-24T06:47:01;7.72;;;6.38;;
13421;SDS011;6782;55.904;13.396;2023-06-24T06:49:49;10.00;;;6.53;;
13421;SDS011;6782;55.904;13.396;2023-06-24T06:52:37;7.78;;;6.63;;
13421;SDS011;6782;55.904;13.396;2023-06-24T06:55:25;8.20;;;6.57;;
13421;SDS011;6782;55.904;13.396;2023-06-24T06:58:12;7.60;;;6.85;;
13421;SDS011;6782;55.904;13.396;2023-06-24T07:01:00;8.20;;;6.63;;
13421;SDS011;6782;55.904;13.396;2023-06-24T07:03:50;7.65;;;6.43;;
13421;SDS011;6782;55.904;13.396;2023-06-24T07:06:37;7.32;;;6.60;;
13421;SDS011;6782;55.904;13.396;2023-06-24T07:09:26;7.47;;;6.75;;
13421;SDS011;6782;55.904;13.396;2023-06-24T07:12:13;6.90;;;6.20;;
13421;SDS011;6782;55.904;13.396;2023-06-24T07:15:00;8.38;;;6.95;;
13421;SDS011;6782;55.904;13.396;2023-06-24T07:17:47;7.57;;;6.57;;
13421;SDS011;6782;55.904;13.396;2023-06-24T07:20:35;7.57;;;6.55;;
13421;SDS011;6782;55.904;13.396;2023-06-24T07:23:22;7.47;;;6.78;;
13421;SDS011;6782;55.904;13.396;2023-06-24T07:26:11;7.38;;;6.65;;
13421;SDS011;6782;55.904;13.396;2023-06-24T07:28:58;7.10;;;5.82;;
13421;SDS011;6782;55.904;13.396;2023-06-24T07:31:45;6.90;;;6.13;;
13421;SDS011;6782;55.904;13.396;2023-06-24T07:34:32;7.35;;;6.38;;
13421;SDS011;6782;55.904;13.396;2023-06-24T07:37:20;6.10;;;5.50;;
13421;SDS011;6782;55.904;13.396;2023-06-24T07:40:07;7.32;;;5.80;;
13421;SDS011;6782;55.904;13.396;2023-06-24T07:42:57;7.45;;;5.75;;
13421;SDS011;6782;55.904;13.396;2023-06-24T07:45:44;6.82;;;6.07;;
13421;SDS011;6782;55.904;13.396;2023-06-24T07:48:31;6.85;;;6.15;;
13421;SDS011;6782;55.904;13.396;2023-06-24T07:51:18;7.95;;;6.20;;
13421;SDS011;6782;55.904;13.396;2023-06-24T07:54:06;6.13;;;5.50;;
13421;SDS011;6782;55.904;13.396;2023-06-24T07:56:53;6.10;;;5.50;;
13421;SDS011;6782;55.904;13.396;2023-06-24T07:59:42;6.18;;;5.57;;
13421;SDS011;6782;55.904;13.396;2023-06-24T08:02:29;6.78;;;5.45;;
13421;SDS011;6782;55.904;13.396;2023-06-24T08:05:17;8.15;;;6.20;;
13421;SDS011;6782;55.904;13.396;2023-06-24T08:08:05;7.40;;;5.93;;
13421;SDS011;6782;55.904;13.396;2023-06-24T08:10:53;6.75;;;6.00;;
13421;SDS011;6782;55.904;13.396;2023-06-24T08:13:40;8.00;;;5.90;;
13421;SDS011;6782;55.904;13.396;2023-06-24T08:16:29;6.20;;;5.50;;
13421;SDS011;6782;55.904;13.396;2023-06-24T08:19:17;8.60;;;5.95;;
13421;SDS011;6782;55.904;13.396;2023-06-24T08:22:04;6.63;;;5.80;;
13421;SDS011;6782;55.904;13.396;2023-06-24T08:24:51;6.25;;;5.65;;
13421;SDS011;6782;55.904;13.396;2023-06-24T08:27:38;6.13;;;5.53;;
13421;SDS011;6782;55.904;13.396;2023-06-24T08:30:25;8.85;;;6.28;;
13421;SDS011;6782;55.904;13.396;2023-06-24T08:33:14;5.85;;;5.22;;
13421;SDS011;6782;55.904;13.396;2023-06-24T08:36:02;6.57;;;5.47;;
13421;SDS011;6782;55.904;13.396;2023-06-24T08:38:49;6.93;;;5.70;;
13421;SDS011;6782;55.904;13.396;2023-06-24T08:41:36;6.45;;;5.80;;
13421;SDS011;6782;55.904;13.396;2023-06-24T08:44:23;7.15;;;6.22;;
13421;SDS011;6782;55.904;13.396;2023-06-24T08:47:10;7.53;;;6.28;;
13421;SDS011;6782;55.904;13.396;2023-06-24T08:50:03;6.88;;;5.75;;
13421;SDS011;6782;55.904;13.396;2023-06-24T08:52:54;8.20;;;6.25;;
13421;SDS011;6782;55.904;13.396;2023-06-24T08:55:43;7.18;;;6.03;;
13421;SDS011;6782;55.904;13.396;2023-06-24T08:58:31;7.47;;;5.75;;
13421;SDS011;6782;55.904;13.396;2023-06-24T09:01:19;7.18;;;5.95;;
13421;SDS011;6782;55.904;13.396;2023-06-24T09:04:06;6.45;;;5.88;;
13421;SDS011;6782;55.904;13.396;2023-06-24T09:06:56;7.40;;;6.18;;
13421;SDS011;6782;55.904;13.396;2023-06-24T09:09:43;7.13;;;5.47;;
13421;SDS011;6782;55.904;13.396;2023-06-24T09:12:31;7.65;;;5.60;;
13421;SDS011;6782;55.904;13.396;2023-06-24T09:15:19;6.03;;;5.47;;
13421;SDS011;6782;55.904;13.396;2023-06-24T09:18:06;6.93;;;5.53;;
13421;SDS011;6782;55.904;13.396;2023-06-24T09:20:56;7.43;;;5.60;;
13421;SDS011;6782;55.904;13.396;2023-06-24T09:23:44;6.05;;;5.40;;
13421;SDS011;6782;55.904;13.396;2023-06-24T09:26:32;8.15;;;5.82;;
13421;SDS011;6782;55.904;13.396;2023-06-24T09:29:19;6.13;;;5.10;;
13421;SDS011;6782;55.904;13.396;2023-06-24T09:32:12;5.40;;;4.95;;
13421;SDS011;6782;55.904;13.396;2023-06-24T09:35:02;8.27;;;5.60;;
13421;SDS011;6782;55.904;13.396;2023-06-24T09:37:52;5.55;;;4.82;;
13421;SDS011;6782;55.904;13.396;2023-06-24T09:40:41;5.35;;;4.45;;
13421;SDS011;6782;55.904;13.396;2023-06-24T09:43:29;5.05;;;4.47;;
13421;SDS011;6782;55.904;13.396;2023-06-24T09:46:16;7.03;;;5.07;;
13421;SDS011;6782;55.904;13.396;2023-06-24T09:49:04;5.75;;;5.25;;
13421;SDS011;6782;55.904;13.396;2023-06-24T09:51:54;5.90;;;4.82;;
13421;SDS011;6782;55.904;13.396;2023-06-24T09:54:43;6.07;;;4.90;;
13421;SDS011;6782;55.904;13.396;2023-06-24T09:57:34;6.10;;;5.30;;
13421;SDS011;6782;55.904;13.396;2023-06-24T10:00:24;5.20;;;4.70;;
13421;SDS011;6782;55.904;13.396;2023-06-24T10:03:12;5.53;;;4.75;;
13421;SDS011;6782;55.904;13.396;2023-06-24T10:05:59;6.25;;;4.90;;
13421;SDS011;6782;55.904;13.396;2023-06-24T10:08:48;4.75;;;3.92;;
13421;SDS011;6782;55.904;13.396;2023-06-24T10:11:36;5.68;;;4.55;;
13421;SDS011;6782;55.904;13.396;2023-06-24T10:14:25;6.35;;;4.40;;
13421;SDS011;6782;55.904;13.396;2023-06-24T10:17:12;4.75;;;4.18;;
13421;SDS011;6782;55.904;13.396;2023-06-24T10:20:03;4.28;;;3.97;;
13421;SDS011;6782;55.904;13.396;2023-06-24T10:22:51;6.05;;;4.28;;
13421;SDS011;6782;55.904;13.396;2023-06-24T10:25:39;4.60;;;4.20;;
13421;SDS011;6782;55.904;13.396;2023-06-24T10:28:26;5.00;;;4.20;;
13421;SDS011;6782;55.904;13.396;2023-06-24T10:31:15;4.80;;;4.22;;
13421;SDS011;6782;55.904;13.396;2023-06-24T10:34:03;4.70;;;4.20;;
13421;SDS011;6782;55.904;13.396;2023-06-24T10:37:10;5.45;;;4.95;;
13421;SDS011;6782;55.904;13.396;2023-06-24T10:39:59;4.95;;;4.50;;
13421;SDS011;6782;55.904;13.396;2023-06-24T10:42:48;5.47;;;4.85;;
13421;SDS011;6782;55.904;13.396;2023-06-24T10:45:39;7.32;;;4.30;;
13421;SDS011;6782;55.904;13.396;2023-06-24T10:48:37;4.68;;;4.13;;
13421;SDS011;6782;55.904;13.396;2023-06-24T10:51:25;5.40;;;3.85;;
13421;SDS011;6782;55.904;13.396;2023-06-24T10:54:12;4.57;;;4.10;;
13421;SDS011;6782;55.904;13.396;2023-06-24T10:56:59;5.22;;;3.80;;
13421;SDS011;6782;55.904;13.396;2023-06-24T10:59:47;5.70;;;4.40;;
13421;SDS011;6782;55.904;13.396;2023-06-24T11:02:35;5.70;;;4.20;;
13421;SDS011;6782;55.904;13.396;2023-06-24T11:05:24;5.20;;;4.68;;
13421;SDS011;6782;55.904;13.396;2023-06-24T11:08:11;5.45;;;4.60;;
13421;SDS011;6782;55.904;13.396;2023-06-24T11:10:59;5.60;;;4.20;;
13421;SDS011;6782;55.904;13.396;2023-06-24T11:13:48;4.63;;;4.22;;
13421;SDS011;6782;55.904;13.396;2023-06-24T11:16:35;3.90;;;3.60;;
13421;SDS011;6782;55.904;13.396;2023-06-24T11:19:24;5.15;;;4.22;;
13421;SDS011;6782;55.904;13.396;2023-06-24T11:22:13;7.78;;;4.18;;
13421;SDS011;6782;55.904;13.396;2023-06-24T11:25:00;5.22;;;4.00;;
13421;SDS011;6782;55.904;13.396;2023-06-24T11:27:49;5.43;;;3.92;;
13421;SDS011;6782;55.904;13.396;2023-06-24T11:30:37;4.60;;;3.92;;
13421;SDS011;6782;55.904;13.396;2023-06-24T11:33:28;4.32;;;3.72;;
13421;SDS011;6782;55.904;13.396;2023-06-24T11:36:16;5.68;;;4.03;;
13421;SDS011;6782;55.904;13.396;2023-06-24T11:39:04;6.22;;;4.00;;
13421;SDS011;6782;55.904;13.396;2023-06-24T11:41:52;4.40;;;3.80;;
13421;SDS011;6782;55.904;13.396;2023-06-24T11:44:42;5.65;;;4.40;;
13421;SDS011;6782;55.904;13.396;2023-06-24T11:47:32;5.88;;;4.57;;
13421;SDS011;6782;55.904;13.396;2023-06-24T11:50:25;5.38;;;4.03;;
13421;SDS011;6782;55.904;13.396;2023-06-24T11:53:13;6.45;;;4.10;;
13421;SDS011;6782;55.904;13.396;2023-06-24T11:56:03;5.47;;;4.10;;
13421;SDS011;6782;55.904;13.396;2023-06-24T11:58:50;4.65;;;4.13;;
13421;SDS011;6782;55.904;13.396;2023-06-24T12:01:37;5.60;;;4.18;;
13421;SDS011;6782;55.904;13.396;2023-06-24T12:04:27;6.45;;;4.15;;
13421;SDS011;6782;55.904;13.396;2023-06-24T12:07:15;7.30;;;4.32;;
13421;SDS011;6782;55.904;13.396;2023-06-24T12:10:02;4.63;;;4.22;;
13421;SDS011;6782;55.904;13.396;2023-06-24T12:12:51;5.25;;;4.10;;
13421;SDS011;6782;55.904;13.396;2023-06-24T12:15:39;7.38;;;4.10;;
13421;SDS011;6782;55.904;13.396;2023-06-24T12:18:26;4.82;;;4.22;;
13421;SDS011;6782;55.904;13.396;2023-06-24T12:21:13;5.28;;;4.20;;
13421;SDS011;6782;55.904;13.396;2023-06-24T12:24:00;6.07;;;4.07;;
13421;SDS011;6782;55.904;13.396;2023-06-24T12:26:48;3.90;;;3.53;;
13421;SDS011;6782;55.904;13.396;2023-06-24T12:29:36;3.97;;;3.20;;
13421;SDS011;6782;55.904;13.396;2023-06-24T12:32:24;4.38;;;3.55;;
13421;SDS011;6782;55.904;13.396;2023-06-24T12:35:12;4.35;;;3.95;;
13421;SDS011;6782;55.904;13.396;2023-06-24T12:37:59;4.40;;;3.63;;
13421;SDS011;6782;55.904;13.396;2023-06-24T12:40:46;5.20;;;3.90;;
13421;SDS011;6782;55.904;13.396;2023-06-24T12:43:34;5.13;;;3.85;;
13421;SDS011;6782;55.904;13.396;2023-06-24T12:46:22;5.90;;;4.53;;
13421;SDS011;6782;55.904;13.396;2023-06-24T12:49:10;4.45;;;3.92;;
13421;SDS011;6782;55.904;13.396;2023-06-24T12:51:57;3.88;;;3.58;;
13421;SDS011;6782;55.904;13.396;2023-06-24T12:54:44;5.05;;;3.75;;
13421;SDS011;6782;55.904;13.396;2023-06-24T12:57:31;6.30;;;4.00;;
13421;SDS011;6782;55.904;13.396;2023-06-24T13:00:19;4.10;;;3.70;;
13421;SDS011;6782;55.904;13.396;2023-06-24T13:03:08;5.82;;;3.70;;
13421;SDS011;6782;55.904;13.396;2023-06-24T13:05:55;5.28;;;4.07;;
13421;SDS011;6782;55.904;13.396;2023-06-24T13:08:42;4.53;;;3.67;;
13421;SDS011;6782;55.904;13.396;2023-06-24T13:11:29;3.65;;;3.15;;
13421;SDS011;6782;55.904;13.396;2023-06-24T13:14:17;4.63;;;3.63;;
13421;SDS011;6782;55.904;13.396;2023-06-24T13:17:04;3.60;;;3.28;;
13421;SDS011;6782;55.904;13.396;2023-06-24T13:19:54;4.32;;;3.65;;
13421;SDS011;6782;55.904;13.396;2023-06-24T13:22:41;4.10;;;3.60;;
13421;SDS011;6782;55.904;13.396;2023-06-24T13:25:29;3.28;;;2.70;;
13421;SDS011;6782;55.904;13.396;2023-06-24T13:28:17;4.00;;;3.08;;
13421;SDS011;6782;55.904;13.396;2023-06-24T13:31:04;3.10;;;2.80;;
13421;SDS011;6782;55.904;13.396;2023-06-24T13:33:51;3.88;;;2.80;;
13421;SDS011;6782;55.904;13.396;2023-06-24T13:36:41;3.60;;;2.38;;
13421;SDS011;6782;55.904;13.396;2023-06-24T13:39:28;3.05;;;2.85;;
13421;SDS011;6782;55.904;13.396;2023-06-24T13:42:15;4.88;;;2.50;;
13421;SDS011;6782;55.904;13.396;2023-06-24T13:45:02;4.05;;;2.70;;
13421;SDS011;6782;55.904;13.396;2023-06-24T13:47:51;3.35;;;3.00;;
13421;SDS011;6782;55.904;13.396;2023-06-24T13:50:40;4.60;;;3.30;;
13421;SDS011;6782;55.904;13.396;2023-06-24T13:53:29;3.55;;;3.15;;
13421;SDS011;6782;55.904;13.396;2023-06-24T13:56:16;3.00;;;2.70;;
13421;SDS011;6782;55.904;13.396;2023-06-24T13:59:04;3.28;;;2.70;;
13421;SDS011;6782;55.904;13.396;2023-06-24T14:01:51;3.60;;;2.78;;
13421;SDS011;6782;55.904;13.396;2023-06-24T14:04:38;4.57;;;2.90;;
13421;SDS011;6782;55.904;13.396;2023-06-24T14:07:26;3.85;;;2.75;;
13421;SDS011;6782;55.904;13.396;2023-06-24T14:10:14;3.05;;;2.75;;
13421;SDS011;6782;55.904;13.396;2023-06-24T14:13:01;4.38;;;3.28;;
13421;SDS011;6782;55.904;13.396;2023-06-24T14:15:50;3.25;;;2.80;;
13421;SDS011;6782;55.904;13.396;2023-06-24T14:18:37;3.53;;;2.70;;
13421;SDS011;6782;55.904;13.396;2023-06-24T14:21:25;3.38;;;2.70;;
13421;SDS011;6782;55.904;13.396;2023-06-24T14:24:14;4.80;;;3.40;;
13421;SDS011;6782;55.904;13.396;2023-06-24T14:27:03;4.28;;;3.20;;
13421;SDS011;6782;55.904;13.396;2023-06-24T14:29:51;5.22;;;2.70;;
13421;SDS011;6782;55.904;13.396;2023-06-24T14:32:38;3.15;;;2.85;;
13421;SDS011;6782;55.904;13.396;2023-06-24T14:35:25;4.57;;;2.80;;
13421;SDS011;6782;55.904;13.396;2023-06-24T14:38:12;4.00;;;3.30;;
13421;SDS011;6782;55.904;13.396;2023-06-24T14:41:00;3.70;;;2.63;;
13421;SDS011;6782;55.904;13.396;2023-06-24T14:43:48;4.45;;;3.03;;
13421;SDS011;6782;55.904;13.396;2023-06-24T14:46:36;3.65;;;2.90;;
13421;SDS011;6782;55.904;13.396;2023-06-24T14:49:23;4.18;;;3.20;;
13421;SDS011;6782;55.904;13.396;2023-06-24T14:52:10;3.08;;;2.88;;
13421;SDS011;6782;55.904;13.396;2023-06-24T14:54:57;4.18;;;3.03;;
13421;SDS011;6782;55.904;13.396;2023-06-24T14:57:44;3.35;;;3.03;;
13421;SDS011;6782;55.904;13.396;2023-06-24T15:00:33;6.53;;;3.20;;
13421;SDS011;6782;55.904;13.396;2023-06-24T15:03:20;4.75;;;2.97;;
13421;SDS011;6782;55.904;13.396;2023-06-24T15:06:08;5.32;;;3.28;;
13421;SDS011;6782;55.904;13.396;2023-06-24T15:08:55;3.85;;;2.53;;
13421;SDS011;6782;55.904;13.396;2023-06-24T15:11:42;3.95;;;3.00;;
13421;SDS011;6782;55.904;13.396;2023-06-24T15:14:29;4.07;;;2.80;;
13421;SDS011;6782;55.904;13.396;2023-06-24T15:17:18;3.75;;;2.72;;
13421;SDS011;6782;55.904;13.396;2023-06-24T15:20:07;3.22;;;2.92;;
13421;SDS011;6782;55.904;13.396;2023-06-24T15:22:54;4.00;;;2.80;;
13421;SDS011;6782;55.904;13.396;2023-06-24T15:25:41;4.85;;;3.47;;
13421;SDS011;6782;55.904;13.396;2023-06-24T15:28:29;3.35;;;2.67;;
13421;SDS011;6782;55.904;13.396;2023-06-24T15:31:16;3.17;;;2.83;;
13421;SDS011;6782;55.904;13.396;2023-06-24T15:34:06;3.55;;;2.85;;
13421;SDS011;6782;55.904;13.396;2023-06-24T15:36:53;5.07;;;2.85;;
13421;SDS011;6782;55.904;13.396;2023-06-24T15:39:40;3.95;;;2.67;;
13421;SDS011;6782;55.904;13.396;2023-06-24T15:42:27;3.38;;;3.08;;
13421;SDS011;6782;55.904;13.396;2023-06-24T15:45:15;4.45;;;2.83;;
13421;SDS011;6782;55.904;13.396;2023-06-24T15:48:02;3.22;;;2.63;;
13421;SDS011;6782;55.904;13.396;2023-06-24T15:50:51;5.45;;;3.13;;
13421;SDS011;6782;55.904;13.396;2023-06-24T15:53:38;3.05;;;2.75;;
13421;SDS011;6782;55.904;13.396;2023-06-24T15:56:26;2.92;;;2.72;;
13421;SDS011;6782;55.904;13.396;2023-06-24T15:59:13;3.72;;;2.33;;
13421;SDS011;6782;55.904;13.396;2023-06-24T16:02:00;3.90;;;2.70;;
13421;SDS011;6782;55.904;13.396;2023-06-24T16:04:47;2.90;;;2.70;;
13421;SDS011;6782;55.904;13.396;2023-06-24T16:07:36;5.43;;;2.78;;
13421;SDS011;6782;55.904;13.396;2023-06-24T16:10:23;3.85;;;2.60;;
13421;SDS011;6782;55.904;13.396;2023-06-24T16:13:10;3.58;;;2.83;;
13421;SDS011;6782;55.904;13.396;2023-06-24T16:15:58;2.95;;;2.75;;
13421;SDS011;6782;55.904;13.396;2023-06-24T16:18:45;3.25;;;2.92;;
13421;SDS011;6782;55.904;13.396;2023-06-24T16:21:33;3.38;;;2.70;;
13421;SDS011;6782;55.904;13.396;2023-06-24T16:24:22;3.40;;;3.10;;
13421;SDS011;6782;55.904;13.396;2023-06-24T16:27:10;3.30;;;2.60;;
13421;SDS011;6782;55.904;13.396;2023-06-24T16:29:58;3.58;;;2.70;;
13421;SDS011;6782;55.904;13.396;2023-06-24T16:32:45;4.75;;;2.83;;
13421;SDS011;6782;55.904;13.396;2023-06-24T16:35:32;3.67;;;2.92;;
13421;SDS011;6782;55.904;13.396;2023-06-24T16:38:20;3.35;;;2.67;;
13421;SDS011;6782;55.904;13.396;2023-06-24T16:41:09;4.20;;;3.17;;
13421;SDS011;6782;55.904;13.396;2023-06-24T16:43:57;5.07;;;3.08;;
13421;SDS011;6782;55.904;13.396;2023-06-24T16:46:44;3.78;;;3.08;;